createdAt,value
2018-04-15T00:01:08.744Z,8.96
2018-04-15T00:03:37.873Z,8.99
2018-04-15T00:06:06.252Z,8.99
2018-04-15T00:08:34.638Z,8.98
2018-04-15T00:11:03.003Z,9.02
2018-04-15T00:13:31.501Z,8.83
2018-04-15T00:15:59.887Z,8.73
2018-04-15T00:18:28.420Z,8.83
2018-04-15T00:20:56.936Z,8.88
2018-04-15T00:23:25.383Z,8.85
2018-04-15T00:25:53.900Z,8.87
2018-04-15T00:28:22.756Z,8.91
2018-04-15T00:30:51.150Z,8.89
2018-04-15T00:33:19.631Z,8.89
2018-04-15T00:35:48.176Z,8.94
2018-04-15T00:38:16.509Z,8.96
2018-04-15T00:40:44.896Z,9.00
2018-04-15T00:43:13.985Z,9.06
2018-04-15T00:45:42.387Z,9.07
2018-04-15T00:48:10.755Z,9.11
2018-04-15T00:50:39.811Z,9.09
2018-04-15T00:53:08.219Z,9.13
2018-04-15T00:55:36.598Z,9.18
2018-04-15T00:58:05.361Z,9.20
2018-04-15T01:00:33.955Z,9.16
2018-04-15T01:03:02.393Z,9.16
2018-04-15T01:05:30.920Z,9.10
2018-04-15T01:07:59.373Z,9.13
2018-04-15T01:10:27.771Z,9.23
2018-04-15T01:12:56.472Z,9.23
2018-04-15T01:15:24.884Z,9.28
2018-04-15T01:17:53.287Z,9.33
2018-04-15T01:20:22.171Z,9.25
2018-04-15T01:22:50.635Z,9.19
2018-04-15T01:25:19.039Z,9.27
2018-04-15T01:27:49.165Z,9.33
2018-04-15T01:30:17.549Z,9.35
2018-04-15T01:32:45.925Z,9.38
2018-04-15T01:35:14.337Z,9.35
2018-04-15T01:37:42.679Z,9.35
2018-04-15T01:40:11.060Z,9.37
2018-04-15T01:42:39.468Z,9.32
2018-04-15T01:45:07.890Z,9.33
2018-04-15T01:47:36.284Z,9.36
2018-04-15T01:50:05.285Z,9.41
2018-04-15T01:52:33.914Z,9.40
2018-04-15T01:55:02.325Z,9.38
2018-04-15T01:57:30.829Z,9.43
2018-04-15T01:59:59.252Z,9.50
2018-04-15T02:02:29.462Z,9.49
2018-04-15T02:04:58.688Z,9.52
2018-04-15T02:07:27.140Z,9.46
2018-04-15T02:09:55.733Z,9.35
2018-04-15T02:12:25.029Z,9.50
2018-04-15T02:14:53.517Z,9.59
2018-04-15T02:17:21.924Z,9.61
2018-04-15T02:19:51.886Z,9.59
2018-04-15T02:22:20.273Z,9.57
2018-04-15T02:24:49.394Z,9.57
2018-04-15T02:27:17.864Z,9.59
2018-04-15T02:29:46.327Z,9.44
2018-04-15T02:32:14.903Z,9.47
2018-04-15T02:34:43.305Z,9.48
2018-04-15T02:37:12.637Z,9.56
2018-04-15T02:39:40.991Z,9.47
2018-04-15T02:42:09.387Z,9.33
2018-04-15T02:44:37.752Z,9.48
2018-04-15T02:47:06.132Z,9.45
2018-04-15T02:49:34.534Z,9.47
2018-04-15T02:52:02.920Z,9.36
2018-04-15T02:54:32.272Z,9.39
2018-04-15T02:57:00.706Z,9.30
2018-04-15T02:59:29.143Z,9.43
2018-04-15T03:01:57.580Z,9.44
2018-04-15T03:04:26.060Z,9.47
2018-04-15T03:06:54.746Z,9.53
2018-04-15T03:09:23.179Z,9.58
2018-04-15T03:11:51.643Z,9.56
2018-04-15T03:14:20.188Z,9.54
2018-04-15T03:16:48.606Z,9.53
2018-04-15T03:19:17.491Z,9.58
2018-04-15T03:21:45.886Z,9.57
2018-04-15T03:24:14.352Z,9.50
2018-04-15T03:26:42.808Z,9.44
2018-04-15T03:29:11.171Z,9.51
2018-04-15T03:31:41.450Z,9.55
2018-04-15T03:34:10.110Z,9.58
2018-04-15T03:36:38.494Z,9.58
2018-04-15T03:39:06.885Z,9.61
2018-04-15T03:41:35.395Z,9.60
2018-04-15T03:44:03.745Z,9.63
2018-04-15T03:46:32.230Z,9.59
2018-04-15T03:49:01.036Z,9.60
2018-04-15T03:51:29.408Z,9.63
2018-04-15T03:53:57.776Z,9.68
2018-04-15T03:56:26.214Z,9.69
2018-04-15T03:58:54.634Z,9.70
2018-04-15T04:01:23.073Z,9.77
2018-04-15T04:03:53.499Z,9.75
2018-04-15T04:06:21.916Z,9.67
2018-04-15T04:08:50.362Z,9.56
2018-04-15T04:11:19.251Z,9.51
2018-04-15T04:13:47.687Z,9.49
2018-04-15T04:16:16.424Z,9.46
2018-04-15T04:18:57.038Z,9.47
2018-04-15T04:21:37.289Z,9.39
2018-04-15T04:24:17.802Z,9.38
2018-04-15T04:26:46.176Z,9.36
2018-04-15T04:29:14.970Z,9.30
2018-04-15T04:31:43.483Z,9.40
2018-04-15T04:34:11.849Z,9.42
2018-04-15T04:36:40.374Z,9.53
2018-04-15T04:39:08.897Z,9.61
2018-04-15T04:41:37.273Z,9.60
2018-04-15T04:44:05.621Z,9.64
2018-04-15T04:46:35.921Z,9.58
2018-04-15T04:49:04.271Z,9.61
2018-04-15T04:51:32.636Z,9.52
2018-04-15T04:54:01.107Z,9.54
2018-04-15T04:56:29.604Z,9.61
2018-04-15T04:58:58.218Z,9.61
2018-04-15T05:01:27.036Z,9.60
2018-04-15T05:03:55.698Z,9.73
2018-04-15T05:06:24.106Z,9.74
2018-04-15T05:08:52.563Z,9.79
2018-04-15T05:11:21.044Z,9.66
2018-04-15T05:13:49.443Z,9.57
2018-04-15T05:16:17.936Z,9.68
2018-04-15T05:18:46.297Z,9.78
2018-04-15T05:21:14.675Z,9.89
2018-04-15T05:23:43.557Z,9.82
2018-04-15T05:26:11.909Z,9.84
2018-04-15T05:28:40.286Z,9.80
2018-04-15T05:31:08.663Z,9.77
2018-04-15T05:33:37.047Z,9.62
2018-04-15T05:36:05.541Z,9.70
2018-04-15T05:38:33.938Z,9.93
2018-04-15T05:41:02.325Z,10.07
2018-04-15T05:43:30.704Z,10.01
2018-04-15T05:45:59.140Z,10.07
2018-04-15T05:48:27.525Z,10.15
2018-04-15T05:50:56.029Z,10.21
2018-04-15T05:53:24.435Z,10.22
2018-04-15T05:55:52.966Z,10.25
2018-04-15T05:58:21.383Z,10.18
2018-04-15T06:00:50.059Z,10.27
2018-04-15T06:03:18.509Z,10.29
2018-04-15T06:05:46.864Z,10.32
2018-04-15T06:08:15.374Z,10.29
2018-04-15T06:10:43.777Z,10.35
2018-04-15T06:13:12.132Z,10.35
2018-04-15T06:15:41.312Z,10.35
2018-04-15T06:18:09.678Z,10.37
2018-04-15T06:20:38.058Z,10.32
2018-04-15T06:23:06.533Z,10.38
2018-04-15T06:25:34.948Z,10.49
2018-04-15T06:28:03.310Z,10.55
2018-04-15T06:30:31.792Z,10.63
2018-04-15T06:33:00.244Z,10.57
2018-04-15T06:35:28.618Z,10.70
2018-04-15T06:37:57.042Z,10.69
2018-04-15T06:40:25.628Z,10.61
2018-04-15T06:42:54.145Z,10.85
2018-04-15T06:45:23.484Z,10.98
2018-04-15T06:47:51.910Z,11.09
2018-04-15T06:50:20.304Z,11.19
2018-04-15T06:52:48.784Z,11.20
2018-04-15T06:55:17.147Z,11.28
2018-04-15T06:57:45.510Z,11.18
2018-04-15T07:00:13.888Z,11.27
2018-04-15T07:02:42.266Z,11.27
2018-04-15T07:05:10.632Z,11.22
2018-04-15T07:07:39.020Z,11.27
2018-04-15T07:10:07.386Z,11.32
2018-04-15T07:12:35.853Z,11.48
2018-04-15T07:15:04.705Z,11.62
2018-04-15T07:17:33.147Z,11.46
2018-04-15T07:20:01.544Z,11.45
2018-04-15T07:22:30.461Z,11.53
2018-04-15T07:24:58.888Z,11.52
2018-04-15T07:27:27.337Z,11.41
2018-04-15T07:29:56.530Z,11.36
2018-04-15T07:32:25.173Z,11.23
2018-04-15T07:34:53.598Z,11.59
2018-04-15T07:37:22.191Z,11.76
2018-04-15T07:39:50.602Z,11.66
2018-04-15T07:42:18.990Z,11.83
2018-04-15T07:44:48.293Z,11.82
2018-04-15T07:47:16.651Z,11.83
2018-04-15T07:49:45.038Z,11.80
2018-04-15T07:52:13.471Z,11.86
2018-04-15T07:54:41.870Z,11.84
2018-04-15T07:57:10.221Z,11.92
2018-04-15T07:59:38.729Z,11.91
2018-04-15T08:02:07.087Z,11.97
2018-04-15T08:04:35.468Z,12.06
2018-04-15T08:07:06.019Z,12.16
2018-04-15T08:09:34.416Z,12.02
2018-04-15T08:12:02.776Z,12.15
2018-04-15T08:14:31.172Z,12.27
2018-04-15T08:16:59.800Z,12.26
2018-04-15T08:19:28.180Z,12.31
2018-04-15T08:21:56.991Z,12.28
2018-04-15T08:24:25.488Z,12.24
2018-04-15T08:26:53.957Z,12.33
2018-04-15T08:29:22.812Z,12.24
2018-04-15T08:31:51.311Z,12.34
2018-04-15T08:34:24.536Z,12.39
2018-04-15T08:36:53.069Z,12.46
2018-04-15T08:39:21.552Z,12.49
2018-04-15T08:41:49.976Z,12.15
2018-04-15T08:44:18.558Z,12.43
2018-04-15T08:46:46.983Z,12.57
2018-04-15T08:49:15.390Z,12.68
2018-04-15T08:51:43.793Z,12.62
2018-04-15T08:54:12.164Z,12.64
2018-04-15T08:56:40.688Z,12.51
2018-04-15T08:59:09.129Z,12.62
2018-04-15T09:01:37.495Z,12.74
2018-04-15T09:04:08.954Z,12.79
2018-04-15T09:06:37.348Z,12.91
2018-04-15T09:09:05.884Z,12.72
2018-04-15T09:11:34.584Z,12.66
2018-04-15T09:14:02.953Z,12.83
2018-04-15T09:16:31.376Z,12.72
2018-04-15T09:19:00.875Z,12.81
2018-04-15T09:21:29.396Z,12.56
2018-04-15T09:23:58.161Z,12.59
2018-04-15T09:26:26.628Z,12.63
2018-04-15T09:28:55.142Z,12.55
2018-04-15T09:31:23.542Z,12.58
2018-04-15T09:33:52.392Z,12.56
2018-04-15T09:36:20.817Z,12.65
2018-04-15T09:38:49.286Z,12.65
2018-04-15T09:41:18.821Z,12.67
2018-04-15T09:43:47.187Z,12.78
2018-04-15T09:46:15.616Z,12.75
2018-04-15T09:48:44.936Z,12.63
2018-04-15T09:51:13.298Z,12.36
2018-04-15T09:53:41.675Z,12.51
2018-04-15T09:56:10.514Z,12.54
2018-04-15T09:58:38.958Z,12.48
2018-04-15T10:01:07.344Z,12.55
2018-04-15T10:03:36.607Z,12.55
2018-04-15T10:06:04.950Z,12.55
2018-04-15T10:08:33.291Z,12.59
2018-04-15T10:11:02.085Z,12.60
2018-04-15T10:13:30.644Z,12.70
2018-04-15T10:15:59.922Z,12.70
2018-04-15T10:18:28.731Z,12.68
2018-04-15T10:20:57.336Z,12.76
2018-04-15T10:23:25.762Z,12.63
2018-04-15T10:25:54.592Z,12.42
2018-04-15T10:28:23.028Z,12.33
2018-04-15T10:30:51.757Z,12.30
2018-04-15T10:33:20.815Z,12.21
2018-04-15T10:35:49.482Z,12.22
2018-04-15T10:38:18.188Z,12.36
2018-04-15T10:40:46.640Z,12.42
2018-04-15T10:43:15.002Z,12.21
2018-04-15T10:45:43.483Z,12.12
2018-04-15T10:48:11.955Z,12.12
2018-04-15T10:50:40.308Z,12.07
2018-04-15T10:53:08.705Z,11.90
2018-04-15T10:55:38.046Z,11.91
2018-04-15T10:58:07.440Z,11.90
2018-04-15T11:00:35.947Z,11.91
2018-04-15T11:03:04.447Z,11.92
2018-04-15T11:05:32.812Z,11.90
2018-04-15T11:08:01.493Z,11.97
2018-04-15T11:10:30.336Z,11.90
2018-04-15T11:12:59.134Z,11.86
2018-04-15T11:15:27.678Z,11.93
2018-04-15T11:17:56.634Z,11.74
2018-04-15T11:20:27.971Z,11.65
2018-04-15T11:22:56.606Z,11.56
2018-04-15T11:25:25.425Z,11.56
2018-04-15T11:27:54.025Z,11.52
2018-04-15T11:30:22.481Z,11.57
2018-04-15T11:32:52.707Z,11.63
2018-04-15T11:35:21.291Z,11.76
2018-04-15T11:37:49.733Z,11.73
2018-04-15T11:40:18.438Z,11.67
2018-04-15T11:42:46.797Z,11.66
2018-04-15T11:45:15.300Z,11.52
2018-04-15T11:47:43.660Z,11.42
2018-04-15T11:50:12.033Z,11.47
2018-04-15T11:52:40.435Z,11.53
2018-04-15T11:55:08.841Z,11.42
2018-04-15T11:57:37.440Z,11.40
2018-04-15T12:00:05.967Z,11.35
2018-04-15T12:02:34.344Z,11.23
2018-04-15T12:05:02.838Z,11.14
2018-04-15T12:07:31.363Z,11.27
2018-04-15T12:10:00.079Z,11.46
2018-04-15T12:12:28.569Z,11.53
2018-04-15T12:14:57.014Z,11.33
2018-04-15T12:17:26.168Z,11.41
2018-04-15T12:19:54.715Z,11.45
2018-04-15T12:22:23.170Z,11.49
2018-04-15T12:24:52.981Z,11.52
2018-04-15T12:27:21.548Z,11.47
2018-04-15T12:29:49.972Z,11.30
2018-04-15T12:32:18.431Z,11.30
2018-04-15T12:34:47.116Z,11.32
2018-04-15T12:37:15.635Z,11.17
2018-04-15T12:39:44.088Z,11.28
2018-04-15T12:42:12.445Z,11.44
2018-04-15T12:44:40.798Z,11.46
2018-04-15T12:47:09.187Z,11.59
2018-04-15T12:49:37.545Z,11.71
2018-04-15T12:52:05.917Z,11.43
2018-04-15T12:54:34.580Z,11.54
2018-04-15T12:57:03.020Z,11.53
2018-04-15T12:59:31.413Z,11.41
2018-04-15T13:02:00.022Z,11.51
2018-04-15T13:04:28.397Z,11.36
2018-04-15T13:06:56.857Z,11.15
2018-04-15T13:09:25.692Z,11.01
2018-04-15T13:11:54.312Z,11.01
2018-04-15T13:14:22.775Z,11.14
2018-04-15T13:16:51.194Z,11.23
2018-04-15T13:19:19.788Z,11.23
2018-04-15T13:21:48.349Z,11.32
2018-04-15T13:24:17.343Z,11.41
2018-04-15T13:26:45.705Z,11.31
2018-04-15T13:29:14.080Z,11.38
2018-04-15T13:31:42.464Z,11.32
2018-04-15T13:34:10.846Z,11.27
2018-04-15T13:36:39.248Z,11.21
2018-04-15T13:39:07.649Z,11.25
2018-04-15T13:41:36.142Z,11.27
2018-04-15T13:44:04.546Z,11.39
2018-04-15T13:46:32.929Z,11.42
2018-04-15T13:49:01.368Z,11.41
2018-04-15T13:51:29.967Z,11.42
2018-04-15T13:53:58.522Z,11.31
2018-04-15T13:56:26.897Z,11.36
2018-04-15T13:58:55.401Z,11.35
2018-04-15T14:01:24.077Z,11.44
2018-04-15T14:03:52.853Z,11.51
2018-04-15T14:06:21.361Z,11.48
2018-04-15T14:08:49.836Z,11.68
2018-04-15T14:11:18.380Z,11.50
2018-04-15T14:13:46.771Z,11.49
2018-04-15T14:16:15.240Z,11.53
2018-04-15T14:18:43.645Z,11.44
2018-04-15T14:21:12.029Z,11.22
2018-04-15T14:23:41.148Z,11.33
2018-04-15T14:26:09.508Z,11.30
2018-04-15T14:28:37.855Z,11.21
2018-04-15T14:31:06.510Z,11.31
2018-04-15T14:33:34.892Z,11.39
2018-04-15T14:36:03.263Z,11.38
2018-04-15T14:38:32.136Z,11.50
2018-04-15T14:41:00.577Z,11.48
2018-04-15T14:43:29.080Z,11.50
2018-04-15T14:45:57.551Z,11.45
2018-04-15T14:48:26.211Z,11.67
2018-04-15T14:50:54.583Z,11.77
2018-04-15T14:53:23.542Z,11.46
2018-04-15T14:55:52.137Z,11.54
2018-04-15T14:58:20.829Z,11.55
2018-04-15T15:00:49.572Z,11.71
2018-04-15T15:03:18.020Z,11.51
2018-04-15T15:05:46.455Z,11.42
2018-04-15T15:08:14.867Z,11.54
2018-04-15T15:10:43.205Z,11.46
2018-04-15T15:13:11.589Z,11.49
2018-04-15T15:15:40.958Z,11.57
2018-04-15T15:18:09.488Z,11.38
2018-04-15T15:20:37.949Z,11.41
2018-04-15T15:23:06.522Z,11.22
2018-04-15T15:25:34.928Z,11.48
2018-04-15T15:28:03.313Z,11.56
2018-04-15T15:30:32.421Z,11.70
2018-04-15T15:33:00.895Z,11.62
2018-04-15T15:35:29.271Z,11.70
2018-04-15T15:37:58.187Z,11.62
2018-04-15T15:40:26.636Z,11.45
2018-04-15T15:42:54.995Z,11.50
2018-04-15T15:45:24.821Z,11.69
2018-04-15T15:47:53.754Z,11.66
2018-04-15T15:50:22.337Z,11.61
2018-04-15T15:52:51.728Z,11.55
2018-04-15T15:55:20.546Z,11.62
2018-04-15T15:57:49.008Z,11.46
2018-04-15T16:00:19.265Z,11.37
2018-04-15T16:02:48.298Z,11.21
2018-04-15T16:05:16.757Z,11.33
2018-04-15T16:07:45.116Z,11.26
2018-04-15T16:10:13.481Z,11.36
2018-04-15T16:12:41.902Z,11.44
2018-04-15T16:15:10.285Z,11.33
2018-04-15T16:17:38.666Z,11.21
2018-04-15T16:20:07.056Z,11.22
2018-04-15T16:22:37.193Z,11.39
2018-04-15T16:25:05.803Z,11.59
2018-04-15T16:27:34.347Z,11.61
2018-04-15T16:30:03.556Z,11.54
2018-04-15T16:32:32.318Z,11.52
2018-04-15T16:35:01.022Z,11.54
2018-04-15T16:37:29.762Z,11.73
2018-04-15T16:39:58.580Z,11.77
2018-04-15T16:42:27.001Z,11.80
2018-04-15T16:44:55.810Z,11.65
2018-04-15T16:47:24.328Z,11.55
2018-04-15T16:49:52.808Z,11.58
2018-04-15T16:52:22.837Z,11.56
2018-04-15T16:54:51.524Z,11.54
2018-04-15T16:57:20.335Z,11.57
2018-04-15T16:59:49.258Z,11.62
2018-04-15T17:02:18.453Z,11.64
2018-04-15T17:04:47.178Z,11.55
2018-04-15T17:07:15.732Z,11.47
2018-04-15T17:09:44.213Z,11.35
2018-04-15T17:12:12.561Z,11.40
2018-04-15T17:14:41.672Z,11.42
2018-04-15T17:17:10.040Z,11.33
2018-04-15T17:19:38.574Z,11.29
2018-04-15T17:22:07.135Z,11.34
2018-04-15T17:24:35.571Z,11.23
2018-04-15T17:27:04.225Z,11.16
2018-04-15T17:29:32.765Z,11.12
2018-04-15T17:32:01.568Z,11.06
2018-04-15T17:34:30.053Z,11.03
2018-04-15T17:36:58.867Z,10.90
2018-04-15T17:39:27.312Z,10.97
2018-04-15T17:41:55.984Z,11.04
2018-04-15T17:44:24.615Z,10.98
2018-04-15T17:46:53.182Z,11.01
2018-04-15T17:49:22.611Z,10.89
2018-04-15T17:51:52.004Z,10.92
2018-04-15T17:54:20.676Z,10.93
2018-04-15T17:56:49.825Z,10.89
2018-04-15T17:59:19.613Z,10.83
2018-04-15T18:01:48.348Z,10.73
2018-04-15T18:04:16.733Z,10.73
2018-04-15T18:06:45.193Z,10.73
2018-04-15T18:09:13.650Z,10.63
2018-04-15T18:11:42.168Z,10.60
2018-04-15T18:14:10.652Z,10.56
2018-04-15T18:16:39.239Z,10.57
2018-04-15T18:19:07.683Z,10.59
2018-04-15T18:21:36.450Z,10.59
2018-04-15T18:24:04.730Z,10.47
2018-04-15T18:26:33.403Z,10.52
2018-04-15T18:29:02.970Z,10.53
2018-04-15T18:31:31.521Z,10.52
2018-04-15T18:34:00.136Z,10.50
2018-04-15T18:36:29.341Z,10.54
2018-04-15T18:38:58.167Z,10.50
2018-04-15T18:41:26.773Z,10.50
2018-04-15T18:43:56.215Z,10.58
2018-04-15T18:46:24.694Z,10.62
2018-04-15T18:48:53.223Z,10.59
2018-04-15T18:51:21.874Z,10.45
2018-04-15T18:53:50.493Z,10.16
2018-04-15T18:56:19.010Z,10.09
2018-04-15T18:58:47.691Z,10.22
2018-04-15T19:01:16.073Z,10.19
2018-04-15T19:03:44.464Z,10.18
2018-04-15T19:06:12.965Z,10.26
2018-04-15T19:08:41.361Z,10.16
2018-04-15T19:11:09.805Z,10.00
2018-04-15T19:13:38.826Z,9.82
2018-04-15T19:16:07.383Z,9.70
2018-04-15T19:18:35.928Z,9.83
2018-04-15T19:21:04.481Z,9.74
2018-04-15T19:23:32.985Z,9.55
2018-04-15T19:26:01.448Z,9.51
2018-04-15T19:28:30.460Z,9.52
2018-04-15T19:30:59.033Z,9.54
2018-04-15T19:33:27.486Z,9.46
2018-04-15T19:35:56.874Z,9.46
2018-04-15T19:38:25.431Z,9.43
2018-04-15T19:40:54.198Z,9.57
2018-04-15T19:43:22.940Z,9.74
2018-04-15T19:45:51.426Z,9.87
2018-04-15T19:48:20.557Z,9.92
2018-04-15T19:50:49.510Z,9.90
2018-04-15T19:53:18.362Z,9.86
2018-04-15T19:55:46.733Z,9.87
2018-04-15T19:58:15.364Z,9.86
2018-04-15T20:00:43.875Z,9.77
2018-04-15T20:03:12.274Z,9.65
2018-04-15T20:05:41.507Z,9.68
2018-04-15T20:08:10.168Z,9.58
2018-04-15T20:10:38.615Z,9.47
2018-04-15T20:13:07.965Z,9.49
2018-04-15T20:15:37.363Z,9.60
2018-04-15T20:18:05.916Z,9.72
2018-04-15T20:20:35.000Z,9.85
2018-04-15T20:23:03.429Z,9.81
2018-04-15T20:25:31.927Z,9.73
2018-04-15T20:28:01.785Z,9.67
2018-04-15T20:30:30.374Z,9.63
2018-04-15T20:32:59.268Z,9.67
2018-04-15T20:35:28.578Z,9.67
2018-04-15T20:37:57.190Z,9.64
2018-04-15T20:40:25.706Z,9.72
2018-04-15T20:42:55.278Z,9.75
2018-04-15T20:45:23.721Z,9.73
2018-04-15T20:47:52.239Z,9.77
2018-04-15T20:50:22.064Z,9.73
2018-04-15T20:52:50.928Z,9.90
2018-04-15T20:55:19.691Z,10.02
2018-04-15T20:57:48.685Z,10.00
2018-04-15T21:00:17.146Z,9.93
2018-04-15T21:02:45.594Z,9.96
2018-04-15T21:05:15.075Z,9.83
2018-04-15T21:07:43.477Z,9.61
2018-04-15T21:10:11.894Z,9.70
2018-04-15T21:12:40.503Z,9.82
2018-04-15T21:15:08.870Z,9.88
2018-04-15T21:17:37.285Z,9.83
2018-04-15T21:20:05.856Z,9.81
2018-04-15T21:22:34.419Z,9.73
2018-04-15T21:25:02.824Z,9.63
2018-04-15T21:27:32.538Z,9.75
2018-04-15T21:30:01.237Z,9.77
2018-04-15T21:32:29.676Z,9.86
2018-04-15T21:34:58.356Z,9.89
2018-04-15T21:37:26.797Z,9.80
2018-04-15T21:39:55.312Z,9.78
2018-04-15T21:42:23.998Z,9.88
2018-04-15T21:44:52.504Z,9.93
2018-04-15T21:47:21.086Z,9.92
2018-04-15T21:49:49.712Z,9.84
2018-04-15T21:52:18.194Z,9.97
2018-04-15T21:54:46.716Z,10.03
2018-04-15T21:57:16.033Z,9.98
2018-04-15T21:59:44.396Z,10.00
2018-04-15T22:02:12.773Z,9.79
2018-04-15T22:04:41.767Z,9.82
2018-04-15T22:07:10.345Z,9.61
2018-04-15T22:09:38.820Z,9.60
2018-04-15T22:12:17.140Z,9.73
2018-04-15T22:14:45.557Z,9.57
2018-04-15T22:17:13.898Z,9.39
2018-04-15T22:19:43.085Z,9.43
2018-04-15T22:22:11.459Z,9.49
2018-04-15T22:24:39.918Z,9.59
2018-04-15T22:27:08.308Z,9.55
2018-04-15T22:29:36.660Z,9.77
2018-04-15T22:32:05.132Z,9.86
2018-04-15T22:34:33.652Z,9.87
2018-04-15T22:37:02.059Z,9.88
2018-04-15T22:39:30.571Z,9.87
2018-04-15T22:42:00.461Z,9.86
2018-04-15T22:44:28.941Z,9.76
2018-04-15T22:46:57.362Z,9.83
2018-04-15T22:49:26.838Z,9.68
2018-04-15T22:51:55.223Z,9.60
2018-04-15T22:54:23.612Z,9.75
2018-04-15T22:56:52.139Z,9.75
2018-04-15T22:59:20.772Z,9.67
2018-04-15T23:01:49.321Z,9.75
2018-04-15T23:04:33.212Z,9.74
2018-04-15T23:07:02.053Z,9.82
2018-04-15T23:09:30.485Z,9.83
2018-04-15T23:11:59.018Z,9.84
2018-04-15T23:14:27.502Z,9.79
2018-04-15T23:16:55.898Z,9.81
2018-04-15T23:19:24.440Z,9.77
2018-04-15T23:21:53.009Z,9.68
2018-04-15T23:24:21.711Z,9.61
2018-04-15T23:26:50.216Z,9.64
2018-04-15T23:29:18.681Z,9.66
2018-04-15T23:31:47.116Z,9.68
2018-04-15T23:34:15.909Z,9.64
2018-04-15T23:36:44.265Z,9.59
2018-04-15T23:39:12.636Z,9.65
2018-04-15T23:41:41.077Z,9.45
2018-04-15T23:44:09.467Z,9.47
2018-04-15T23:46:37.847Z,9.50
2018-04-15T23:49:07.691Z,9.59
2018-04-15T23:51:36.043Z,9.52
2018-04-15T23:54:04.413Z,9.60
2018-04-15T23:56:33.206Z,9.45
2018-04-15T23:59:01.611Z,9.30
